Time;durP1;ratioP1;P1;durP2;ratioP2;P2;SDS_P1;SDS_P2;PMS_P1;PMS_P2;Temp;Humidity;BMP_temperature;BMP_pressure;BME280_temperature;BME280_humidity;BME280_pressure;Samples;Min_cycle;Max_cycle;Signal;HPM_P1;HPM_P2
2023/05/12 00:01:10;;;;;;;0.20;0.20;;;;;;;19.14;65.54;101762.69;5049669;28;20402;-65
2023/05/12 00:03:35;;;;;;;0.20;0.20;;;;;;;19.69;62.78;101751.41;5069471;28;20037;-64
2023/05/12 00:06:02;;;;;;;0.10;0.10;;;;;;;19.42;64.01;101754.19;5071108;28;20040;-64
2023/05/12 00:08:28;;;;;;;0.10;0.10;;;;;;;18.71;66.39;101754.63;5071342;28;20657;-64
2023/05/12 00:10:53;;;;;;;0.20;0.20;;;;;;;18.13;68.87;101752.56;5071370;28;20036;-65
2023/05/12 00:13:22;;;;;;;0.20;0.20;;;;;;;18.51;66.75;101749.78;5071394;28;20034;-65
2023/05/12 00:15:47;;;;;;;0.20;0.20;;;;;;;19.48;63.46;101755.09;5071120;28;20086;-65
2023/05/12 00:18:13;;;;;;;0.20;0.20;;;;;;;18.67;65.89;101748.84;5071662;28;20024;-66
2023/05/12 00:20:38;;;;;;;0.15;0.15;;;;;;;18.90;65.88;101750.47;5071187;28;20039;-64
2023/05/12 00:23:03;;;;;;;0.10;0.10;;;;;;;18.96;64.74;101746.72;5071345;28;20065;-65
2023/05/12 00:25:29;;;;;;;0.13;0.13;;;;;;;18.88;66.00;101742.56;5052859;28;20029;-65
2023/05/12 00:27:54;;;;;;;0.30;0.30;;;;;;;19.10;64.61;101745.22;5070994;28;20113;-67
2023/05/12 00:30:20;;;;;;;0.20;0.20;;;;;;;19.77;63.18;101734.53;5071838;28;20032;-64
2023/05/12 00:32:45;;;;;;;0.20;0.20;;;;;;;19.18;64.84;101737.34;5071607;28;20033;-65
2023/05/12 00:35:11;;;;;;;0.20;0.20;;;;;;;18.61;67.53;101738.19;5075153;28;20059;-66
2023/05/12 00:37:36;;;;;;;0.20;0.20;;;;;;;17.72;70.37;101739.47;5075135;28;20025;-65
2023/05/12 00:40:02;;;;;;;0.10;0.10;;;;;;;18.92;66.33;101737.41;5075438;28;20484;-65
2023/05/12 00:42:27;;;;;;;0.10;0.10;;;;;;;19.22;65.69;101743.94;5075374;28;20048;-65
2023/05/12 00:44:54;;;;;;;0.20;0.20;;;;;;;18.55;67.19;101740.03;5073872;28;20108;-66
2023/05/12 00:47:20;;;;;;;0.10;0.10;;;;;;;17.85;69.75;101737.22;5070164;28;20535;-65
2023/05/12 00:49:46;;;;;;;0.17;0.17;;;;;;;18.89;66.67;101735.19;5074675;28;20024;-65
2023/05/12 00:52:11;;;;;;;0.10;0.10;;;;;;;18.34;69.40;101740.84;5074755;28;20082;-65
2023/05/12 00:54:38;;;;;;;0.10;0.10;;;;;;;18.86;66.73;101739.28;5074919;28;20547;-65
2023/05/12 00:57:05;;;;;;;0.10;0.10;;;;;;;19.28;64.95;101734.72;5075013;28;20029;-65
2023/05/12 00:59:30;;;;;;;0.20;0.20;;;;;;;19.53;63.19;101738.75;5074618;28;20043;-65
2023/05/12 01:01:56;;;;;;;0.10;0.10;;;;;;;19.69;63.74;101730.41;5074512;28;20496;-65
2023/05/12 01:04:22;;;;;;;0.10;0.10;;;;;;;18.91;65.56;101739.31;5074372;28;20426;-65
2023/05/12 01:06:57;;;;;;;0.10;0.10;;;;;;;19.55;64.42;101736.56;5074604;28;20040;-66
2023/05/12 01:09:22;;;;;;;0.28;0.28;;;;;;;19.85;63.34;101726.66;5074948;28;20032;-65
2023/05/12 01:11:48;;;;;;;0.13;0.13;;;;;;;20.31;60.78;101726.88;5074323;28;20048;-65
2023/05/12 01:14:13;;;;;;;0.20;0.20;;;;;;;18.46;67.04;101733.38;5074385;28;20033;-65
2023/05/12 01:16:44;;;;;;;0.10;0.10;;;;;;;20.17;62.13;101728.47;5074291;28;20029;-65
2023/05/12 01:19:41;;;;;;;0.10;0.10;;;;;;;19.59;63.08;101724.88;5074129;28;20086;-65
2023/05/12 01:22:08;;;;;;;0.20;0.20;;;;;;;18.85;65.78;101725.91;5059579;28;20040;-67
2023/05/12 01:24:44;;;;;;;0.20;0.20;;;;;;;19.95;63.31;101726.72;5074671;28;20032;-66
2023/05/12 01:27:09;;;;;;;0.20;0.20;;;;;;;18.75;66.21;101732.06;5074424;28;20059;-65
2023/05/12 01:29:35;;;;;;;0.10;0.10;;;;;;;18.78;66.12;101722.56;5074275;28;20052;-65
2023/05/12 01:32:02;;;;;;;0.20;0.20;;;;;;;19.09;65.46;101727.19;5073907;28;20533;-63
2023/05/12 01:34:27;;;;;;;0.20;0.20;;;;;;;18.82;67.51;101732.69;5073301;28;20028;-66
2023/05/12 01:36:52;;;;;;;0.20;0.20;;;;;;;18.95;65.82;101725.97;5074560;28;20024;-64
2023/05/12 01:39:18;;;;;;;0.20;0.20;;;;;;;19.35;64.97;101729.09;5073624;28;20492;-65
2023/05/12 01:41:43;;;;;;;0.10;0.10;;;;;;;19.16;65.35;101731.34;5066872;28;20045;-66
2023/05/12 01:44:09;;;;;;;0.20;0.20;;;;;;;19.44;64.49;101732.94;5073157;28;20468;-66
2023/05/12 01:46:35;;;;;;;0.17;0.17;;;;;;;20.22;61.96;101723.03;5058981;28;20021;-65
2023/05/12 01:49:00;;;;;;;0.10;0.10;;;;;;;21.06;58.61;101727.06;5053802;28;20033;-65
2023/05/12 01:51:26;;;;;;;0.20;0.20;;;;;;;21.13;58.33;101724.88;5053623;28;20029;-64
2023/05/12 01:53:51;;;;;;;0.20;0.20;;;;;;;19.88;62.05;101730.78;5053639;28;20033;-66
2023/05/12 01:56:16;;;;;;;0.20;0.20;;;;;;;19.78;62.51;101733.44;5053491;28;20029;-65
2023/05/12 01:58:42;;;;;;;0.20;0.20;;;;;;;19.51;63.29;101735.47;5064518;28;20377;-65
2023/05/12 02:01:07;;;;;;;0.17;0.17;;;;;;;19.78;62.18;101741.63;5059570;28;20041;-66
2023/05/12 02:03:33;;;;;;;0.20;0.20;;;;;;;19.24;64.98;101738.25;5070645;28;20191;-65
2023/05/12 02:05:58;;;;;;;0.10;0.10;;;;;;;19.57;63.79;101737.97;5047224;28;20077;-65
2023/05/12 02:08:23;;;;;;;0.20;0.20;;;;;;;20.54;60.53;101740.88;5048453;28;20427;-67
2023/05/12 02:10:50;;;;;;;0.20;0.20;;;;;;;19.39;63.84;101745.72;5062699;28;20444;-64
2023/05/12 02:13:15;;;;;;;0.30;0.30;;;;;;;20.07;62.83;101731.94;5068361;28;20094;-65
2023/05/12 02:15:40;;;;;;;0.15;0.15;;;;;;;20.48;60.85;101741.97;5056514;28;20036;-65
2023/05/12 02:18:06;;;;;;;0.10;0.10;;;;;;;20.48;60.37;101736.50;5067865;28;20033;-65
2023/05/12 02:20:32;;;;;;;0.20;0.20;;;;;;;19.93;62.65;101736.28;5053404;28;20393;-65
2023/05/12 02:22:57;;;;;;;0.10;0.10;;;;;;;20.65;60.61;101737.09;5066305;28;20032;-66
2023/05/12 02:25:22;;;;;;;0.17;0.17;;;;;;;20.00;62.84;101739.56;5057224;28;20037;-66
2023/05/12 02:27:48;;;;;;;0.20;0.20;;;;;;;20.90;59.74;101737.13;5072052;28;20044;-65
2023/05/12 02:30:14;;;;;;;0.22;0.22;;;;;;;20.31;60.68;101738.63;5066627;28;20389;-66
2023/05/12 02:32:40;;;;;;;0.20;0.20;;;;;;;20.57;60.83;101745.81;5063013;28;20033;-65
2023/05/12 02:35:06;;;;;;;0.10;0.10;;;;;;;20.74;60.09;101740.94;5073095;28;20041;-66
2023/05/12 02:37:31;;;;;;;0.20;0.20;;;;;;;20.20;61.57;101745.16;5053586;28;20029;-64
2023/05/12 02:39:57;;;;;;;0.20;0.20;;;;;;;20.68;60.60;101744.75;5068913;28;20090;-66
2023/05/12 02:42:22;;;;;;;0.20;0.20;;;;;;;20.41;60.73;101746.88;5059401;28;20048;-66
2023/05/12 02:44:47;;;;;;;0.20;0.20;;;;;;;20.98;59.79;101741.22;5063436;28;20066;-64
2023/05/12 02:47:13;;;;;;;0.20;0.20;;;;;;;21.20;58.46;101744.56;5052708;28;20036;-65
2023/05/12 02:49:38;;;;;;;0.15;0.15;;;;;;;20.20;61.76;101742.44;5070761;28;20070;-64
2023/05/12 02:52:04;;;;;;;0.10;0.10;;;;;;;20.23;62.23;101739.16;5056260;28;20494;-65
2023/05/12 02:54:30;;;;;;;0.20;0.20;;;;;;;20.44;60.93;101734.59;5061051;28;20021;-65
2023/05/12 02:56:57;;;;;;;0.20;0.20;;;;;;;21.09;58.94;101734.69;5069012;28;20039;-66
2023/05/12 02:59:22;;;;;;;0.20;0.20;;;;;;;20.71;60.35;101743.38;5056899;28;20025;-65
2023/05/12 03:01:48;;;;;;;0.13;0.13;;;;;;;20.59;61.41;101729.16;5069237;28;20030;-65
2023/05/12 03:04:13;;;;;;;0.25;0.25;;;;;;;20.51;61.66;101719.59;5058388;28;20040;-64
2023/05/12 03:06:38;;;;;;;0.20;0.20;;;;;;;20.42;61.35;101723.13;5062288;28;20033;-65
2023/05/12 03:09:04;;;;;;;0.10;0.10;;;;;;;20.63;60.46;101714.69;5065732;28;20032;-65
2023/05/12 03:11:29;;;;;;;0.20;0.20;;;;;;;19.94;63.34;101725.09;5055396;28;20953;-64
2023/05/12 03:13:55;;;;;;;0.20;0.20;;;;;;;19.93;63.64;101719.91;5068814;28;20032;-63
2023/05/12 03:16:20;;;;;;;0.15;0.15;;;;;;;20.76;60.88;101721.53;5041560;28;20033;-66
2023/05/12 03:18:46;;;;;;;0.10;0.10;;;;;;;20.57;61.66;101723.97;5060837;28;20045;-66
2023/05/12 03:21:11;;;;;;;0.15;0.15;;;;;;;21.50;58.80;101727.31;5051993;28;20033;-65
2023/05/12 03:23:37;;;;;;;0.20;0.20;;;;;;;20.49;61.40;101740.06;5069996;28;20040;-64
2023/05/12 03:26:02;;;;;;;0.20;0.20;;;;;;;20.06;62.52;101733.03;5067377;28;20030;-65
2023/05/12 03:28:28;;;;;;;0.20;0.20;;;;;;;21.24;59.78;101734.72;5052068;28;20039;-66
2023/05/12 03:30:53;;;;;;;0.20;0.20;;;;;;;20.65;61.97;101728.91;5051865;28;20048;-64
2023/05/12 03:33:18;;;;;;;0.20;0.20;;;;;;;21.00;59.96;101731.69;5052001;28;20033;-65
2023/05/12 03:35:44;;;;;;;0.20;0.20;;;;;;;20.17;62.54;101733.94;5068075;28;20028;-64
2023/05/12 03:38:09;;;;;;;0.20;0.20;;;;;;;20.91;61.44;101733.28;5057543;28;20031;-65
2023/05/12 03:40:35;;;;;;;0.20;0.20;;;;;;;21.43;58.24;101733.06;5072538;28;20028;-65
2023/05/12 03:43:00;;;;;;;0.20;0.20;;;;;;;21.07;60.84;101731.41;5071454;28;20408;-64
2023/05/12 03:45:26;;;;;;;0.20;0.20;;;;;;;21.06;60.99;101735.25;5066288;28;20034;-65
2023/05/12 03:47:51;;;;;;;0.20;0.20;;;;;;;20.43;61.10;101732.94;5054835;28;20477;-65
2023/05/12 03:50:17;;;;;;;0.20;0.20;;;;;;;20.86;61.07;101735.22;5069625;28;20077;-66
2023/05/12 03:52:42;;;;;;;0.10;0.10;;;;;;;21.39;59.52;101731.13;5062258;28;20025;-65
2023/05/12 03:55:08;;;;;;;0.20;0.20;;;;;;;21.27;59.58;101734.16;5057053;28;20477;-64
2023/05/12 03:57:35;;;;;;;0.20;0.20;;;;;;;21.38;59.78;101730.34;5051634;28;20037;-65
2023/05/12 04:00:01;;;;;;;0.20;0.20;;;;;;;21.18;59.61;101733.09;5066398;28;20547;-65
2023/05/12 04:02:26;;;;;;;0.20;0.20;;;;;;;21.34;59.76;101725.69;5046666;28;20104;-65
2023/05/12 04:04:51;;;;;;;0.20;0.20;;;;;;;21.32;58.33;101727.88;5050763;28;20033;-64
2023/05/12 04:07:17;;;;;;;0.20;0.20;;;;;;;21.55;59.05;101738.22;5030809;28;20041;-64
2023/05/12 04:09:42;;;;;;;0.10;0.10;;;;;;;21.23;59.97;101735.00;5048410;28;20040;-65
2023/05/12 04:12:09;;;;;;;0.20;0.20;;;;;;;21.64;58.23;101731.91;5050219;28;20489;-64
2023/05/12 04:14:34;;;;;;;0.20;0.20;;;;;;;21.45;59.24;101732.78;5043472;28;20029;-65
2023/05/12 04:16:59;;;;;;;0.20;0.20;;;;;;;21.71;58.00;101737.09;5051325;28;20025;-65
2023/05/12 04:19:25;;;;;;;0.20;0.20;;;;;;;21.35;59.09;101735.50;5050883;28;20037;-65
2023/05/12 04:21:50;;;;;;;0.20;0.20;;;;;;;21.44;59.55;101737.44;5053766;28;20532;-64
2023/05/12 04:24:15;;;;;;;0.20;0.20;;;;;;;20.80;61.60;101750.78;5051515;28;20509;-65
2023/05/12 04:26:41;;;;;;;0.10;0.10;;;;;;;21.04;60.57;101745.66;5060936;28;20028;-64
2023/05/12 04:29:06;;;;;;;0.20;0.20;;;;;;;21.02;60.74;101753.28;5057160;28;20542;-64
2023/05/12 04:31:32;;;;;;;0.20;0.20;;;;;;;21.14;60.79;101751.13;5051845;28;20017;-65
2023/05/12 04:33:57;;;;;;;0.20;0.20;;;;;;;20.57;62.49;101753.19;5066973;28;20354;-64
2023/05/12 04:36:22;;;;;;;0.20;0.20;;;;;;;20.83;62.40;101752.94;5058317;28;20040;-65
2023/05/12 04:38:48;;;;;;;0.10;0.10;;;;;;;20.68;62.46;101755.66;5059690;28;20508;-65
2023/05/12 04:41:13;;;;;;;0.20;0.20;;;;;;;20.77;62.32;101764.16;5065534;28;20037;-66
2023/05/12 04:43:38;;;;;;;0.20;0.20;;;;;;;21.15;61.01;101762.88;5055045;28;20025;-65
2023/05/12 04:46:04;;;;;;;0.20;0.20;;;;;;;20.79;62.88;101768.28;5060196;28;20037;-64
2023/05/12 04:48:29;;;;;;;0.17;0.17;;;;;;;21.14;61.34;101762.06;5059512;28;20036;-67
2023/05/12 04:50:57;;;;;;;0.20;0.20;;;;;;;21.32;60.91;101764.25;5058683;28;20519;-64
2023/05/12 04:53:22;;;;;;;0.13;0.13;;;;;;;21.19;61.02;101769.44;5066088;28;20028;-64
2023/05/12 04:55:48;;;;;;;0.20;0.20;;;;;;;21.65;60.38;101763.66;5052120;28;20572;-64
2023/05/12 04:58:14;;;;;;;0.10;0.10;;;;;;;20.90;62.67;101764.47;5050604;28;20041;-66
2023/05/12 05:00:39;;;;;;;0.10;0.10;;;;;;;21.29;60.85;101770.25;5060803;28;20048;-65
2023/05/12 05:03:05;;;;;;;0.20;0.20;;;;;;;21.57;60.57;101771.59;5057388;28;20106;-65
2023/05/12 05:05:31;;;;;;;0.10;0.10;;;;;;;21.19;61.22;101778.44;5067127;28;20037;-66
2023/05/12 05:07:56;;;;;;;0.20;0.20;;;;;;;21.65;59.75;101787.47;5054860;28;20051;-64
2023/05/12 05:10:22;;;;;;;0.20;0.20;;;;;;;21.18;60.77;101785.03;5056079;28;20502;-64
2023/05/12 05:12:47;;;;;;;0.10;0.10;;;;;;;21.58;60.03;101784.19;5050043;28;20497;-65
2023/05/12 05:15:12;;;;;;;0.10;0.10;;;;;;;20.41;62.95;101784.25;5049834;28;20040;-65
2023/05/12 05:17:38;;;;;;;0.10;0.10;;;;;;;21.63;60.31;101785.00;5048465;28;20065;-65
2023/05/12 05:20:04;;;;;;;0.10;0.10;;;;;;;21.71;59.78;101789.09;5047226;28;20033;-65
2023/05/12 05:22:29;;;;;;;0.20;0.20;;;;;;;21.77;60.14;101793.47;5045129;28;20041;-65
2023/05/12 05:24:55;;;;;;;0.10;0.10;;;;;;;21.61;60.43;101791.84;5045690;28;20055;-65
2023/05/12 05:27:20;;;;;;;0.10;0.10;;;;;;;22.37;58.35;101793.31;5054174;28;20619;-64
2023/05/12 05:29:45;;;;;;;0.10;0.10;;;;;;;22.17;58.40;101801.59;5070699;28;20035;-66
2023/05/12 05:32:11;;;;;;;0.20;0.20;;;;;;;22.15;58.49;101803.78;5059223;28;20446;-65
2023/05/12 05:34:37;;;;;;;0.20;0.20;;;;;;;21.58;60.28;101798.69;5064006;28;20358;-66
2023/05/12 05:37:02;;;;;;;0.20;0.20;;;;;;;22.02;59.10;101809.03;5066414;28;20037;-65
2023/05/12 05:39:29;;;;;;;0.10;0.10;;;;;;;22.04;58.92;101804.09;5056999;28;20021;-65
2023/05/12 05:41:56;;;;;;;0.10;0.10;;;;;;;22.57;57.38;101812.44;5070132;28;20056;-65
2023/05/12 05:44:21;;;;;;;0.20;0.20;;;;;;;22.02;58.92;101812.59;5061352;28;20122;-63
2023/05/12 05:46:47;;;;;;;0.10;0.10;;;;;;;22.64;56.78;101818.41;5057165;28;20025;-64
2023/05/12 05:49:12;;;;;;;0.10;0.10;;;;;;;22.43;57.46;101818.75;5067793;28;20090;-64
2023/05/12 05:51:37;;;;;;;0.20;0.20;;;;;;;22.95;56.21;101827.31;5061733;28;20044;-65
2023/05/12 05:54:03;;;;;;;0.20;0.20;;;;;;;22.02;58.93;101826.28;5053026;28;20036;-65
2023/05/12 05:56:29;;;;;;;0.20;0.20;;;;;;;22.54;57.59;101837.59;5052726;28;20125;-65
2023/05/12 05:58:55;;;;;;;0.20;0.20;;;;;;;22.93;57.17;101842.41;5052806;28;20048;-64
2023/05/12 06:01:21;;;;;;;0.20;0.20;;;;;;;22.69;57.11;101839.50;5052740;28;20025;-64
2023/05/12 06:03:46;;;;;;;0.10;0.10;;;;;;;23.31;55.26;101845.19;5052853;28;20036;-65
2023/05/12 06:06:12;;;;;;;0.20;0.20;;;;;;;22.75;55.94;101840.28;5034939;28;20056;-65
2023/05/12 06:08:37;;;;;;;0.10;0.10;;;;;;;22.57;56.80;101845.31;5054006;28;20068;-65
2023/05/12 06:11:03;;;;;;;0.10;0.10;;;;;;;22.79;56.83;101844.13;5053567;28;20033;-63
2023/05/12 06:13:28;;;;;;;0.15;0.15;;;;;;;23.35;55.07;101854.47;5052778;28;20025;-63
2023/05/12 06:15:53;;;;;;;0.10;0.10;;;;;;;23.87;54.01;101856.53;5050124;28;20052;-65
2023/05/12 06:18:21;;;;;;;0.10;0.10;;;;;;;23.15;55.14;101849.13;5050331;28;20017;-64
2023/05/12 06:20:46;;;;;;;0.10;0.10;;;;;;;22.92;55.33;101860.75;5053269;28;20087;-65
2023/05/12 06:23:12;;;;;;;0.10;0.10;;;;;;;23.64;54.16;101861.94;5053454;28;20067;-63
2023/05/12 06:25:37;;;;;;;0.10;0.10;;;;;;;23.33;54.45;101862.19;5051999;28;20371;-64
2023/05/12 06:28:02;;;;;;;0.10;0.10;;;;;;;23.87;53.43;101866.69;5057801;28;20052;-64
2023/05/12 06:30:28;;;;;;;0.10;0.10;;;;;;;23.86;53.13;101854.88;5063926;28;20086;-67
2023/05/12 06:32:53;;;;;;;0.10;0.10;;;;;;;23.70;54.27;101867.13;5055156;28;20033;-65
2023/05/12 06:35:19;;;;;;;0.10;0.10;;;;;;;23.62;53.96;101867.72;5049010;28;20118;-66
2023/05/12 06:37:48;;;;;;;0.10;0.10;;;;;;;24.00;52.88;101868.78;5054093;28;20504;-65
2023/05/12 06:40:14;;;;;;;0.10;0.10;;;;;;;23.67;54.27;101864.09;5054334;28;20044;-65
2023/05/12 06:42:40;;;;;;;0.10;0.10;;;;;;;23.18;55.59;101862.25;5070029;28;20557;-66
2023/05/12 06:45:06;;;;;;;0.10;0.10;;;;;;;23.13;55.78;101865.03;5083422;28;20036;-67
2023/05/12 06:47:31;;;;;;;0.10;0.10;;;;;;;23.88;54.03;101869.13;5063080;28;20036;-64
2023/05/12 06:49:57;;;;;;;0.10;0.10;;;;;;;23.62;54.85;101870.47;5081166;28;20401;-66
2023/05/12 06:52:22;;;;;;;0.10;0.10;;;;;;;23.85;54.30;101868.91;5071446;28;20036;-65
2023/05/12 06:54:48;;;;;;;0.10;0.10;;;;;;;24.02;53.94;101869.31;5078734;28;20035;-66
2023/05/12 06:57:14;;;;;;;0.10;0.10;;;;;;;23.84;55.22;101872.75;5082466;28;20055;-65
2023/05/12 06:59:39;;;;;;;0.10;0.10;;;;;;;23.72;55.03;101870.41;5082547;28;20097;-65
2023/05/12 07:02:05;;;;;;;0.00;0.00;;;;;;;23.80;55.02;101878.00;5081517;28;20518;-64
2023/05/12 07:04:30;;;;;;;0.10;0.10;;;;;;;24.45;52.73;101881.22;5079127;28;20032;-67
2023/05/12 07:06:56;;;;;;;0.10;0.10;;;;;;;24.22;53.14;101877.34;5078044;28;20037;-66
2023/05/12 07:09:21;;;;;;;0.05;0.05;;;;;;;24.30;52.86;101879.44;5074722;28;20025;-65
2023/05/12 07:11:47;;;;;;;0.10;0.10;;;;;;;23.18;56.65;101886.09;5066432;28;20622;-67
2023/05/12 07:14:12;;;;;;;0.10;0.10;;;;;;;23.46;55.71;101879.94;5069951;28;20038;-66
2023/05/12 07:16:38;;;;;;;0.10;0.10;;;;;;;24.34;53.61;101878.59;5075471;28;20090;-65
2023/05/12 07:19:05;;;;;;;0.10;0.10;;;;;;;23.78;55.51;101888.47;5069202;28;20812;-65
2023/05/12 07:21:30;;;;;;;0.00;0.00;;;;;;;23.75;54.83;101888.19;5078091;28;20107;-64
2023/05/12 07:23:56;;;;;;;0.10;0.10;;;;;;;24.55;53.47;101892.09;5074473;28;20112;-64
2023/05/12 07:26:23;;;;;;;0.05;0.05;;;;;;;24.91;52.91;101879.56;5082461;28;20044;-65
2023/05/12 07:28:48;;;;;;;0.05;0.05;;;;;;;24.89;53.37;101890.03;5086178;28;20047;-65
2023/05/12 07:31:14;;;;;;;0.00;0.00;;;;;;;25.21;52.79;101885.47;5067007;28;20596;-64
2023/05/12 07:33:40;;;;;;;0.10;0.10;;;;;;;24.98;52.77;101886.31;5067534;28;20047;-66
2023/05/12 07:36:07;;;;;;;0.00;0.00;;;;;;;25.56;50.49;101883.31;5070813;28;20357;-64
2023/05/12 07:38:32;;;;;;;0.10;0.10;;;;;;;25.03;51.97;101888.19;5071468;28;20136;-66
2023/05/12 07:40:59;;;;;;;0.10;0.10;;;;;;;25.56;50.94;101886.06;5069160;28;20119;-68
2023/05/12 07:43:24;;;;;;;0.10;0.10;;;;;;;25.72;49.99;101890.19;5088454;28;20085;-66
2023/05/12 07:45:50;;;;;;;0.10;0.10;;;;;;;24.82;52.03;101886.84;5087470;28;20479;-66
2023/05/12 07:48:15;;;;;;;0.00;0.00;;;;;;;24.55;53.21;101897.59;5083529;28;20028;-64
2023/05/12 07:50:41;;;;;;;0.10;0.10;;;;;;;25.33;51.52;101896.03;5071477;28;20044;-66
2023/05/12 07:53:06;;;;;;;0.10;0.10;;;;;;;24.94;52.51;101907.28;5073652;28;20052;-66
2023/05/12 07:55:32;;;;;;;0.10;0.10;;;;;;;24.72;52.64;101906.19;5076293;28;20090;-65
2023/05/12 07:57:57;;;;;;;0.00;0.00;;;;;;;24.85;52.30;101916.50;5084852;28;20047;-65
2023/05/12 08:00:23;;;;;;;0.08;0.08;;;;;;;25.14;51.73;101909.78;5067465;28;20047;-65
2023/05/12 08:02:48;;;;;;;0.00;0.00;;;;;;;25.26;51.62;101904.66;5061175;28;20078;-66
2023/05/12 08:05:14;;;;;;;0.00;0.00;;;;;;;25.52;50.01;101907.88;5081325;28;20395;-65
2023/05/12 08:07:42;;;;;;;0.00;0.00;;;;;;;25.09;51.42;101915.34;5074563;28;20040;-65
2023/05/12 08:10:09;;;;;;;0.10;0.10;;;;;;;24.53;52.34;101919.06;5078556;28;20096;-64
2023/05/12 08:12:34;;;;;;;0.10;0.10;;;;;;;24.75;51.31;101922.09;5073213;28;20063;-65
2023/05/12 08:14:59;;;;;;;0.00;0.00;;;;;;;24.72;51.75;101920.78;5050738;28;20033;-65
2023/05/12 08:17:25;;;;;;;0.10;0.10;;;;;;;25.30;50.50;101926.09;5063166;28;20554;-65
2023/05/12 08:19:50;;;;;;;0.00;0.00;;;;;;;25.57;49.88;101924.28;5086361;28;20115;-65
2023/05/12 08:22:16;;;;;;;0.10;0.10;;;;;;;24.97;50.80;101925.97;5076194;28;20033;-64
2023/05/12 08:24:41;;;;;;;0.10;0.10;;;;;;;25.13;51.18;101918.31;5073982;28;20093;-64
2023/05/12 08:27:06;;;;;;;0.00;0.00;;;;;;;24.99;51.32;101931.16;5078797;28;20535;-65
2023/05/12 08:29:32;;;;;;;0.10;0.10;;;;;;;25.17;50.99;101935.88;5078116;28;20040;-65
2023/05/12 08:31:58;;;;;;;0.10;0.10;;;;;;;25.45;50.53;101931.38;5082917;28;20062;-65
2023/05/12 08:34:23;;;;;;;0.08;0.08;;;;;;;25.69;50.34;101937.63;5071600;28;20086;-66
2023/05/12 08:36:51;;;;;;;0.00;0.00;;;;;;;25.62;49.87;101942.69;5082381;28;20039;-64
2023/05/12 08:39:16;;;;;;;0.10;0.10;;;;;;;25.10;50.87;101941.72;5073641;28;20028;-65
2023/05/12 08:42:12;;;;;;;0.05;0.05;;;;;;;25.17;51.40;101935.88;5079030;28;20504;-65
2023/05/12 08:44:38;;;;;;;0.00;0.00;;;;;;;24.45;53.08;101941.69;4993737;28;20068;-66
2023/05/12 08:47:05;;;;;;;0.00;0.00;;;;;;;25.02;52.28;101942.38;4988238;28;20050;-65
2023/05/12 08:49:31;;;;;;;0.00;0.00;;;;;;;25.37;51.10;101932.03;4994702;28;20042;-63
2023/05/12 08:52:00;;;;;;;0.00;0.00;;;;;;;25.24;50.78;101939.06;4979410;28;20034;-65
2023/05/12 08:54:27;;;;;;;0.00;0.00;;;;;;;25.15;51.85;101943.59;5004760;28;20018;-66
2023/05/12 08:56:53;;;;;;;0.00;0.00;;;;;;;25.63;49.69;101941.56;5003083;28;20180;-64
2023/05/12 08:59:18;;;;;;;0.00;0.00;;;;;;;24.99;51.50;101955.91;4990086;28;20073;-64
2023/05/12 09:01:46;;;;;;;0.00;0.00;;;;;;;25.70;49.42;101948.34;4995886;28;20050;-67
2023/05/12 09:04:14;;;;;;;0.00;0.00;;;;;;;25.74;49.50;101954.06;4994674;28;20077;-64
2023/05/12 09:06:40;;;;;;;0.00;0.00;;;;;;;25.25;49.88;101960.81;4975992;28;20419;-65
2023/05/12 09:09:06;;;;;;;0.00;0.00;;;;;;;25.09;50.48;101959.38;4990082;28;20095;-65
2023/05/12 09:11:32;;;;;;;0.00;0.00;;;;;;;24.42;52.32;101963.13;4990992;28;20042;-65
2023/05/12 09:14:02;;;;;;;0.00;0.00;;;;;;;25.68;49.55;101958.84;5002133;28;20104;-65
2023/05/12 09:16:33;;;;;;;0.00;0.00;;;;;;;26.01;49.53;101959.66;4991748;28;20109;-65
2023/05/12 09:19:00;;;;;;;0.10;0.10;;;;;;;25.89;49.36;101962.06;4988404;28;20046;-65
2023/05/12 09:21:27;;;;;;;0.00;0.00;;;;;;;26.72;47.59;101959.25;5036592;28;20376;-64
2023/05/12 09:23:56;;;;;;;0.00;0.00;;;;;;;27.11;46.89;101953.19;5085344;28;20037;-64
2023/05/12 09:26:23;;;;;;;0.00;0.00;;;;;;;26.34;46.61;101966.81;5085651;28;20131;-66
2023/05/12 09:28:51;;;;;;;0.00;0.00;;;;;;;27.84;45.84;101959.25;5090378;28;20448;-65
2023/05/12 09:31:18;;;;;;;0.00;0.00;;;;;;;28.07;45.52;101954.59;5075920;28;20468;-64
2023/05/12 09:33:43;;;;;;;0.05;0.05;;;;;;;27.72;44.66;101953.47;5078207;28;20028;-66
2023/05/12 09:36:09;;;;;;;0.00;0.00;;;;;;;26.85;45.79;101956.47;5081301;28;20039;-65
2023/05/12 09:38:35;;;;;;;0.00;0.00;;;;;;;27.39;45.38;101963.09;5072032;28;20386;-65
2023/05/12 09:41:00;;;;;;;0.00;0.00;;;;;;;27.88;43.62;101960.25;5071811;28;20036;-64
2023/05/12 09:43:25;;;;;;;0.00;0.00;;;;;;;28.17;43.60;101966.19;5078843;28;20044;-66
2023/05/12 09:45:51;;;;;;;0.00;0.00;;;;;;;27.85;42.69;101962.84;5089602;28;20036;-66
2023/05/12 09:48:16;;;;;;;0.00;0.00;;;;;;;27.84;42.54;101964.78;5084230;28;20442;-64
2023/05/12 09:50:50;;;;;;;0.00;0.00;;;;;;;28.62;41.71;101959.44;5085599;28;20027;-66
2023/05/12 09:53:19;;;;;;;0.00;0.00;;;;;;;28.16;41.92;101964.56;5078059;28;20028;-65
2023/05/12 09:55:46;;;;;;;0.00;0.00;;;;;;;27.34;45.75;101964.00;5076527;28;20488;-66
2023/05/12 09:58:14;;;;;;;0.00;0.00;;;;;;;27.58;44.09;101972.84;5076737;28;20050;-65
2023/05/12 10:00:40;;;;;;;0.00;0.00;;;;;;;27.78;42.51;101960.50;5069393;28;20036;-65
2023/05/12 10:03:16;;;;;;;0.00;0.00;;;;;;;28.06;42.15;101962.06;5074905;28;20036;-65
2023/05/12 10:05:52;;;;;;;0.00;0.00;;;;;;;27.98;43.48;101962.81;5075595;28;20167;-66
2023/05/12 10:08:26;;;;;;;0.00;0.00;;;;;;;28.47;42.11;101976.44;5075174;28;20040;-66
2023/05/12 10:10:52;;;;;;;0.00;0.00;;;;;;;27.81;42.14;101968.19;5070172;28;20035;-65
2023/05/12 10:13:18;;;;;;;0.00;0.00;;;;;;;28.77;40.81;101979.53;5074754;28;20619;-66
2023/05/12 10:15:47;;;;;;;0.00;0.00;;;;;;;28.11;41.39;101969.41;5070153;28;20408;-65
2023/05/12 10:18:14;;;;;;;0.00;0.00;;;;;;;27.83;44.29;101969.47;5075952;28;20511;-67
2023/05/12 10:20:42;;;;;;;0.00;0.00;;;;;;;28.68;42.09;101970.41;5067905;28;20040;-65
2023/05/12 10:23:11;;;;;;;0.00;0.00;;;;;;;27.63;44.57;101972.75;5075543;28;20086;-65
2023/05/12 10:25:39;;;;;;;0.00;0.00;;;;;;;28.11;42.51;101970.19;5080793;28;20094;-67
2023/05/12 10:28:05;;;;;;;0.00;0.00;;;;;;;28.83;42.57;101968.00;5083954;28;20039;-65
2023/05/12 10:30:32;;;;;;;0.00;0.00;;;;;;;29.14;40.94;101963.25;5081316;28;20021;-66
2023/05/12 10:32:58;;;;;;;0.00;0.00;;;;;;;28.34;42.05;101962.72;5079898;28;20035;-65
2023/05/12 10:35:34;;;;;;;0.00;0.00;;;;;;;28.73;42.46;101957.22;5073958;28;20032;-64
2023/05/12 10:38:03;;;;;;;0.00;0.00;;;;;;;28.07;42.91;101960.91;5064765;28;20044;-66
2023/05/12 10:40:28;;;;;;;0.00;0.00;;;;;;;27.36;43.42;101967.28;5075878;28;20563;-66
2023/05/12 10:42:58;;;;;;;0.00;0.00;;;;;;;27.94;42.25;101967.28;5077295;28;20177;-65
2023/05/12 10:45:23;;;;;;;0.00;0.00;;;;;;;27.22;44.40;101968.41;5079790;28;20039;-65
2023/05/12 10:47:48;;;;;;;0.00;0.00;;;;;;;27.09;44.93;101964.53;5079628;28;20024;-66
2023/05/12 10:50:24;;;;;;;0.00;0.00;;;;;;;27.09;44.07;101961.78;5066317;28;20041;-66
2023/05/12 10:52:56;;;;;;;0.00;0.00;;;;;;;28.35;41.80;101973.44;5046070;28;20442;-66
2023/05/12 10:55:41;;;;;;;0.00;0.00;;;;;;;28.94;40.15;101968.50;5069547;28;20035;-67
2023/05/12 10:58:11;;;;;;;0.00;0.00;;;;;;;28.34;39.62;101968.25;5068119;28;20039;-65
2023/05/12 11:00:50;;;;;;;0.00;0.00;;;;;;;28.45;39.92;101975.13;5068417;28;20047;-65
2023/05/12 11:03:21;;;;;;;0.00;0.00;;;;;;;28.17;40.69;101968.13;5069189;28;20060;-65
2023/05/12 11:06:00;;;;;;;0.00;0.00;;;;;;;29.83;39.85;101966.91;5080072;28;20530;-66
2023/05/12 11:08:26;;;;;;;0.00;0.00;;;;;;;29.34;40.55;101968.16;5068019;28;20428;-67
2023/05/12 11:10:52;;;;;;;0.00;0.00;;;;;;;29.55;37.43;101973.03;5071238;28;20052;-66
2023/05/12 11:13:18;;;;;;;0.00;0.00;;;;;;;29.28;40.09;101971.41;5067620;28;20036;-66
2023/05/12 11:15:44;;;;;;;0.00;0.00;;;;;;;28.54;39.48;101973.19;5068335;28;20032;-67
2023/05/12 11:18:11;;;;;;;0.00;0.00;;;;;;;28.03;39.33;101975.69;5070261;28;20404;-67
2023/05/12 11:20:37;;;;;;;0.00;0.00;;;;;;;28.64;39.07;101970.19;5069534;28;20461;-66